Seiryumaru — JD3476 — position and weather

sailwx.info

Track history (hours):
 
Tides and Currents Weather Stations Pressure Air Temp Water Temp Dewpoint Dewpoint Depression Visibility Wind Speed Wind Dir Waves Ship Positions

Seiryumaru

Last reported at 2017-Nov-16 09:54 UTC. Time now 2017-Nov-18 11:58 UTC.
Position N 34°35' E 134°52'.

Length 61 m; draft 2.8 m.

Type: Cargo ship. MMSI: 431004176.

Date/timePositionNaut miles runAvg speedWind from/ knotsBaromVisibWave heightAir tempDewpointWater temp
2017-Nov-16 09:54N 34°35' E 134°52'713.6
2017-Nov-16 09:25N 34°38' E 134°59'513.0
2017-Nov-16 09:00N 34°36' E 135°05'612.0
2017-Nov-16 08:30N 34°37' E 135°13'611.4
2017-Nov-16 08:00N 34°39' E 135°19'5 1.5
2017-Nov-16 04:53N 34°41' E 135°24'0 0.5
2017-Nov-16 04:30N 34°41' E 135°24'0 0.0
2017-Nov-16 04:00N 34°41' E 135°24'0 0.0
2017-Nov-16 03:29N 34°41' E 135°24'0 0.0
2017-Nov-16 02:58N 34°41' E 135°24'0 0.0
2017-Nov-16 02:30N 34°41' E 135°24'0 0.2
2017-Nov-16 01:59N 34°41' E 135°24'3 6.0
2017-Nov-16 01:31N 34°41' E 135°21'2 3.3
2017-Nov-16 01:00N 34°42' E 135°19'1 2.0
2017-Nov-16 00:16N 34°43' E 135°18'0 0.0
2017-Nov-15 23:58N 34°43' E 135°18'0 0.0
2017-Nov-15 22:28N 34°43' E 135°18'0 0.0
2017-Nov-15 21:46N 34°43' E 135°18'0 0.0
2017-Nov-15 21:16N 34°43' E 135°18'0 0.0
2017-Nov-15 20:58N 34°43' E 135°18'1 3.2
2017-Nov-15 20:30N 34°42' E 135°18'5 9.9
2017-Nov-15 20:00N 34°38' E 135°15'611.5
2017-Nov-15 19:30N 34°36' E 135°08'611.0
2017-Nov-15 19:00N 34°37' E 135°02'  
2017-Nov-12 16:43N 34°46' E 139°10'311.6
2017-Nov-12 16:29N 34°47' E 139°13'1711.4
2017-Nov-12 15:01N 34°58' E 139°28'010.8
2017-Nov-12 15:00N 34°58' E 139°29'611.5
2017-Nov-12 14:30N 35°02' E 139°34'611.9
2017-Nov-12 14:01N 35°06' E 139°39'612.0
2017-Nov-12 13:31N 35°10' E 139°44'611.2
2017-Nov-12 13:01N 35°16' E 139°46'611.8
2017-Nov-12 12:31N 35°21' E 139°42'510.2
2017-Nov-12 12:00N 35°25' E 139°46'711.4
2017-Nov-12 11:25N 35°22' E 139°53'1 0.0
2017-Nov-10 14:00N 35°22' E 139°53'1 0.5
2017-Nov-10 13:02N 35°22' E 139°53'0 0.0
2017-Nov-10 12:53N 35°22' E 139°53'0 0.0
2017-Nov-10 12:29N 35°22' E 139°53'0 0.0
2017-Nov-10 11:44N 35°22' E 139°53'0 0.0
2017-Nov-10 11:23N 35°22' E 139°53'0 0.0
2017-Nov-10 10:59N 35°22' E 139°53'0 0.1
2017-Nov-10 10:20N 35°22' E 139°53'0 0.1
2017-Nov-10 09:50N 35°22' E 139°53'0 0.0
2017-Nov-10 09:29N 35°22' E 139°53'0 0.0
2017-Nov-10 08:59N 35°22' E 139°53'1 0.1
2017-Nov-10 00:22N 35°22' E 139°54'1 0.1
2017-Nov-09 11:10N 35°22' E 139°53'0 0.0
2017-Nov-09 08:11N 35°22' E 139°53'0 1.6
2017-Nov-09 07:58N 35°22' E 139°52'4 8.8
2017-Nov-09 07:30N 35°26' E 139°52'611.5
2017-Nov-09 07:00N 35°32' E 139°53'611.6
2017-Nov-09 06:27N 35°37' E 139°48'1 0.1
2017-Nov-08 18:01N 35°37' E 139°48'0 0.0
2017-Nov-08 17:55N 35°37' E 139°48'0 0.0
2017-Nov-08 17:07N 35°37' E 139°48'0 0.0
2017-Nov-08 16:49N 35°37' E 139°48'0 0.0
2017-Nov-08 16:19N 35°37' E 139°48'0 0.0
2017-Nov-08 15:13N 35°37' E 139°48'0 0.0
2017-Nov-08 14:55N 35°37' E 139°48'0 0.0
2017-Nov-07 16:47N 35°37' E 139°48'9 7.9
2017-Nov-07 15:37N 35°29' E 139°51'211.7
2017-Nov-07 15:29N 35°27' E 139°50'511.4
2017-Nov-07 15:00N 35°23' E 139°46'510.6
2017-Nov-07 14:30N 35°18' E 139°45'610.2
2017-Nov-07 13:57N 35°12' E 139°47'  
Track history (hours):
 
Tides and Currents Weather Stations Pressure Air Temp Water Temp Dewpoint Dewpoint Depression Visibility Wind Speed Wind Dir Waves Ship Positions

Seiryumaru

Last reported at 2017-Nov-16 09:54 UTC. Time now 2017-Nov-18 11:58 UTC.
Position N 34°35' E 134°52'.

Length 61 m; draft 2.8 m.

Type: Cargo ship. MMSI: 431004176.

Date/timePositionNaut miles runAvg speedWind from/ knotsBaromVisibWave heightAir tempDewpointWater temp
2017-Nov-16 09:54N 34°35' E 134°52'713.6
2017-Nov-16 09:25N 34°38' E 134°59'513.0
2017-Nov-16 09:00N 34°36' E 135°05'612.0
2017-Nov-16 08:30N 34°37' E 135°13'611.4
2017-Nov-16 08:00N 34°39' E 135°19'5 1.5
2017-Nov-16 04:53N 34°41' E 135°24'0 0.5
2017-Nov-16 04:30N 34°41' E 135°24'0 0.0
2017-Nov-16 04:00N 34°41' E 135°24'0 0.0
2017-Nov-16 03:29N 34°41' E 135°24'0 0.0
2017-Nov-16 02:58N 34°41' E 135°24'0 0.0
2017-Nov-16 02:30N 34°41' E 135°24'0 0.2
2017-Nov-16 01:59N 34°41' E 135°24'3 6.0
2017-Nov-16 01:31N 34°41' E 135°21'2 3.3
2017-Nov-16 01:00N 34°42' E 135°19'1 2.0
2017-Nov-16 00:16N 34°43' E 135°18'0 0.0
2017-Nov-15 23:58N 34°43' E 135°18'0 0.0
2017-Nov-15 22:28N 34°43' E 135°18'0 0.0
2017-Nov-15 21:46N 34°43' E 135°18'0 0.0
2017-Nov-15 21:16N 34°43' E 135°18'0 0.0
2017-Nov-15 20:58N 34°43' E 135°18'1 3.2
2017-Nov-15 20:30N 34°42' E 135°18'5 9.9
2017-Nov-15 20:00N 34°38' E 135°15'611.5
2017-Nov-15 19:30N 34°36' E 135°08'611.0
2017-Nov-15 19:00N 34°37' E 135°02'  
2017-Nov-12 16:43N 34°46' E 139°10'311.6
2017-Nov-12 16:29N 34°47' E 139°13'1711.4
2017-Nov-12 15:01N 34°58' E 139°28'010.8
2017-Nov-12 15:00N 34°58' E 139°29'611.5
2017-Nov-12 14:30N 35°02' E 139°34'611.9
2017-Nov-12 14:01N 35°06' E 139°39'612.0
2017-Nov-12 13:31N 35°10' E 139°44'611.2
2017-Nov-12 13:01N 35°16' E 139°46'611.8
2017-Nov-12 12:31N 35°21' E 139°42'510.2
2017-Nov-12 12:00N 35°25' E 139°46'711.4
2017-Nov-12 11:25N 35°22' E 139°53'1 0.0
2017-Nov-10 14:00N 35°22' E 139°53'1 0.5
2017-Nov-10 13:02N 35°22' E 139°53'0 0.0
2017-Nov-10 12:53N 35°22' E 139°53'0 0.0
2017-Nov-10 12:29N 35°22' E 139°53'0 0.0
2017-Nov-10 11:44N 35°22' E 139°53'0 0.0
2017-Nov-10 11:23N 35°22' E 139°53'0 0.0
2017-Nov-10 10:59N 35°22' E 139°53'0 0.1
2017-Nov-10 10:20N 35°22' E 139°53'0 0.1
2017-Nov-10 09:50N 35°22' E 139°53'0 0.0
2017-Nov-10 09:29N 35°22' E 139°53'0 0.0
2017-Nov-10 08:59N 35°22' E 139°53'1 0.1
2017-Nov-10 00:22N 35°22' E 139°54'1 0.1
2017-Nov-09 11:10N 35°22' E 139°53'0 0.0
2017-Nov-09 08:11N 35°22' E 139°53'0 1.6
2017-Nov-09 07:58N 35°22' E 139°52'4 8.8
2017-Nov-09 07:30N 35°26' E 139°52'611.5
2017-Nov-09 07:00N 35°32' E 139°53'611.6
2017-Nov-09 06:27N 35°37' E 139°48'1 0.1
2017-Nov-08 18:01N 35°37' E 139°48'0 0.0
2017-Nov-08 17:55N 35°37' E 139°48'0 0.0
2017-Nov-08 17:07N 35°37' E 139°48'0 0.0
2017-Nov-08 16:49N 35°37' E 139°48'0 0.0
2017-Nov-08 16:19N 35°37' E 139°48'0 0.0
2017-Nov-08 15:13N 35°37' E 139°48'0 0.0
2017-Nov-08 14:55N 35°37' E 139°48'0 0.0
2017-Nov-07 16:47N 35°37' E 139°48'9 7.9
2017-Nov-07 15:37N 35°29' E 139°51'211.7
2017-Nov-07 15:29N 35°27' E 139°50'511.4
2017-Nov-07 15:00N 35°23' E 139°46'510.6
2017-Nov-07 14:30N 35°18' E 139°45'610.2
2017-Nov-07 13:57N 35°12' E 139°47'  

Dump ship's entire track history